Hampton Beach, New Hampshire
Current Conditions -  °F | °C
As of 9:22 PM on Wednesday 22 Oct 2014 (Local Time) from KPSM Reporting Station
Light Rain Light Rain  
Wind Chill: 42°   Ceiling: 700
Heat Index: 48°   Visibility: 5mi
Dew Point: 46°   Wind: 18mph
Humidity: 93%   Direction: 30°NNE
Pressure: 29.93"   Gusts: 31mph
Location:  42.9284°N, 70.8566°W
Report Text: KPSM 230122Z 03016G27KT 5SM -RA BR SCT004 OVC007 09/08 A2993 RMK AO2A
Loading
Personal Weather Stations






























Interactive Weather Map
Tropical Storm Tracking
New forecast layout! Learn more

10-Day Weather Forecast

Advertisements
Track Severe Weather on mobile